Time;durP1;ratioP1;P1;durP2;ratioP2;P2;SDS_P1;SDS_P2;PMS_P1;PMS_P2;Temp;Humidity;BMP_temperature;BMP_pressure;BME280_temperature;BME280_humidity;BME280_pressure;Samples;Min_cycle;Max_cycle;Signal;HPM_P1;HPM_P2
2023/10/25 00:02:21;;;;;;;5.97;2.10;;;;;;;;;;6185415;23;20282;-90
2023/10/25 00:04:55;;;;;;;8.10;2.20;;;;;;;;;;6185062;23;20184;-89
2023/10/25 00:07:24;;;;;;;2.03;1.43;;;;;;;;;;6185003;23;20253;-89
2023/10/25 00:09:52;;;;;;;1.07;1.07;;;;;;;;;;6184599;23;20262;-89
2023/10/25 00:12:22;;;;;;;3.63;1.80;;;;;;;;;;6185018;23;20171;-89
2023/10/25 00:14:50;;;;;;;2.97;1.30;;;;;;;;;;6185172;23;20213;-89
2023/10/25 00:17:19;;;;;;;7.07;1.90;;;;;;;;;;6184578;23;20218;-89
2023/10/25 00:19:47;;;;;;;5.67;1.73;;;;;;;;;;6184522;23;20197;-90
2023/10/25 00:22:17;;;;;;;1.00;1.00;;;;;;;;;;6185421;23;20191;-89
2023/10/25 00:24:46;;;;;;;3.47;1.87;;;;;;;;;;6184509;23;20171;-89
2023/10/25 00:27:15;;;;;;;2.50;1.50;;;;;;;;;;6184179;23;20178;-90
2023/10/25 00:29:43;;;;;;;4.77;2.10;;;;;;;;;;6185082;23;20250;-89
2023/10/25 00:32:14;;;;;;;3.73;1.37;;;;;;;;;;6185019;23;20178;-89
2023/10/25 00:34:43;;;;;;;9.57;2.43;;;;;;;;;;6185310;23;20183;-89
2023/10/25 00:37:11;;;;;;;5.87;2.27;;;;;;;;;;6184282;23;20225;-89
2023/10/25 00:39:42;;;;;;;8.97;2.20;;;;;;;;;;6185006;23;20220;-89
2023/10/25 00:42:11;;;;;;;3.80;2.40;;;;;;;;;;6184647;23;20187;-89
2023/10/25 00:44:39;;;;;;;5.23;2.27;;;;;;;;;;6184691;23;20174;-89
2023/10/25 00:47:09;;;;;;;4.27;2.30;;;;;;;;;;6184505;23;20250;-90
2023/10/25 00:49:37;;;;;;;7.60;2.30;;;;;;;;;;6184906;23;20171;-89
2023/10/25 00:52:06;;;;;;;3.93;2.00;;;;;;;;;;6184505;23;20225;-89
2023/10/25 00:54:36;;;;;;;1.43;1.33;;;;;;;;;;6184303;23;20171;-89
2023/10/25 00:57:06;;;;;;;4.80;2.23;;;;;;;;;;6184361;23;20167;-89
2023/10/25 00:59:34;;;;;;;5.20;2.23;;;;;;;;;;6184705;23;20178;-89
2023/10/25 01:02:04;;;;;;;7.00;2.37;;;;;;;;;;6184923;23;20175;-89
2023/10/25 01:04:32;;;;;;;4.10;2.43;;;;;;;;;;6184096;23;20222;-89
2023/10/25 01:07:01;;;;;;;8.60;2.57;;;;;;;;;;6184592;23;20197;-89
2023/10/25 01:09:30;;;;;;;2.63;2.07;;;;;;;;;;6184638;23;20171;-89
2023/10/25 01:11:59;;;;;;;5.20;2.17;;;;;;;;;;6184339;23;20174;-89
2023/10/25 01:14:29;;;;;;;1.30;1.20;;;;;;;;;;6184474;23;20179;-89
2023/10/25 01:16:58;;;;;;;3.47;2.00;;;;;;;;;;6184421;23;20269;-89
2023/10/25 01:19:27;;;;;;;2.53;1.87;;;;;;;;;;6184407;23;20211;-89
2023/10/25 01:21:55;;;;;;;3.97;1.97;;;;;;;;;;6184858;23;20175;-89
2023/10/25 01:24:25;;;;;;;3.77;2.47;;;;;;;;;;6184208;23;20273;-89
2023/10/25 01:26:54;;;;;;;6.23;2.57;;;;;;;;;;6184799;23;20218;-89
2023/10/25 01:29:22;;;;;;;5.93;2.70;;;;;;;;;;6184329;23;20180;-89
2023/10/25 01:31:51;;;;;;;6.60;2.97;;;;;;;;;;6184692;23;20182;-88
2023/10/25 01:34:19;;;;;;;6.27;2.80;;;;;;;;;;6184005;23;20186;-88
2023/10/25 01:36:48;;;;;;;8.30;3.13;;;;;;;;;;6184479;23;20222;-89
2023/10/25 01:39:17;;;;;;;12.00;3.13;;;;;;;;;;6184713;23;20171;-89
2023/10/25 01:41:47;;;;;;;1.20;1.20;;;;;;;;;;6184707;23;20182;-89
2023/10/25 01:44:15;;;;;;;4.37;1.57;;;;;;;;;;6183580;23;20182;-89
2023/10/25 01:46:44;;;;;;;0.70;0.70;;;;;;;;;;6183966;23;20254;-88
2023/10/25 01:49:12;;;;;;;3.70;1.63;;;;;;;;;;6184405;23;20182;-89
2023/10/25 01:51:41;;;;;;;7.27;3.00;;;;;;;;;;6184114;23;20518;-89
2023/10/25 01:54:09;;;;;;;5.63;2.93;;;;;;;;;;6183941;23;20181;-89
2023/10/25 01:56:38;;;;;;;5.80;2.97;;;;;;;;;;6184851;23;20175;-89
2023/10/25 01:59:07;;;;;;;6.70;2.93;;;;;;;;;;6184123;23;20171;-89
2023/10/25 02:01:35;;;;;;;5.77;3.03;;;;;;;;;;6183964;23;20175;-89
2023/10/25 02:04:04;;;;;;;5.30;2.10;;;;;;;;;;6183583;23;20278;-89
2023/10/25 02:06:33;;;;;;;5.70;2.40;;;;;;;;;;6184170;23;20167;-89
2023/10/25 02:09:03;;;;;;;6.03;2.23;;;;;;;;;;6184461;23;20204;-89
2023/10/25 02:11:32;;;;;;;2.10;1.90;;;;;;;;;;6183824;23;20222;-89
2023/10/25 02:14:00;;;;;;;6.17;2.23;;;;;;;;;;6183264;23;20173;-89
2023/10/25 02:16:30;;;;;;;6.57;2.50;;;;;;;;;;6184114;23;20493;-89
2023/10/25 02:18:59;;;;;;;0.60;0.60;;;;;;;;;;6183769;23;20254;-90
2023/10/25 02:21:28;;;;;;;1.90;0.60;;;;;;;;;;6183288;23;20178;-89
2023/10/25 02:23:57;;;;;;;7.67;4.00;;;;;;;;;;6183320;23;20241;-89
2023/10/25 02:26:27;;;;;;;7.63;3.90;;;;;;;;;;6183785;23;20261;-88
2023/10/25 02:28:55;;;;;;;1.40;1.30;;;;;;;;;;6183983;23;20182;-89
2023/10/25 02:31:24;;;;;;;6.47;4.30;;;;;;;;;;6183088;23;20175;-89
2023/10/25 02:33:54;;;;;;;11.30;5.47;;;;;;;;;;6183074;23;20203;-89
2023/10/25 02:36:22;;;;;;;5.00;1.40;;;;;;;;;;6184891;23;20174;-89
2023/10/25 02:38:51;;;;;;;5.60;3.73;;;;;;;;;;6183664;23;20173;-89
2023/10/25 02:41:20;;;;;;;1.80;1.70;;;;;;;;;;6183349;23;20183;-89
2023/10/25 02:43:50;;;;;;;0.90;0.90;;;;;;;;;;6183237;23;20193;-89
2023/10/25 02:46:19;;;;;;;1.60;1.23;;;;;;;;;;6183697;23;20181;-89
2023/10/25 02:48:47;;;;;;;0.73;0.73;;;;;;;;;;6183579;23;20181;-88
2023/10/25 02:51:18;;;;;;;1.23;1.23;;;;;;;;;;6183570;23;20186;-89
2023/10/25 02:53:46;;;;;;;0.60;0.60;;;;;;;;;;6183141;23;20182;-89
2023/10/25 02:56:15;;;;;;;2.83;1.90;;;;;;;;;;6183525;23;20173;-89
2023/10/25 02:58:43;;;;;;;4.43;2.40;;;;;;;;;;6185916;23;20189;-89
2023/10/25 03:01:20;;;;;;;1.17;1.17;;;;;;;;;;6185784;23;20190;-89
2023/10/25 03:03:49;;;;;;;2.80;2.63;;;;;;;;;;6185695;23;20241;-89
2023/10/25 03:06:19;;;;;;;4.03;1.70;;;;;;;;;;6185876;23;20171;-89
2023/10/25 03:08:48;;;;;;;1.00;1.00;;;;;;;;;;6185052;23;20201;-89
2023/10/25 03:11:16;;;;;;;1.03;1.03;;;;;;;;;;6185172;23;20183;-89
2023/10/25 03:13:46;;;;;;;0.80;0.80;;;;;;;;;;6185992;23;20171;-89
2023/10/25 03:16:14;;;;;;;5.87;5.37;;;;;;;;;;6186115;23;20182;-88
2023/10/25 03:18:43;;;;;;;0.60;0.60;;;;;;;;;;6185115;23;20216;-89
2023/10/25 03:21:12;;;;;;;3.93;2.97;;;;;;;;;;6185196;23;20178;-89
2023/10/25 03:23:41;;;;;;;5.10;3.67;;;;;;;;;;6185893;23;20194;-89
2023/10/25 03:26:10;;;;;;;0.60;0.60;;;;;;;;;;6186287;23;20175;-89
2023/10/25 03:28:39;;;;;;;1.50;1.40;;;;;;;;;;6185330;23;20176;-90
2023/10/25 03:31:09;;;;;;;2.00;1.90;;;;;;;;;;6185425;23;20216;-89
2023/10/25 03:33:38;;;;;;;1.40;1.40;;;;;;;;;;6186228;23;20183;-89
2023/10/25 03:36:07;;;;;;;6.17;4.30;;;;;;;;;;6186006;23;20243;-89
2023/10/25 03:38:35;;;;;;;11.37;7.80;;;;;;;;;;6185078;23;20213;-88
2023/10/25 03:41:06;;;;;;;20.47;12.37;;;;;;;;;;6185119;23;20171;-89
2023/10/25 03:43:35;;;;;;;18.70;12.40;;;;;;;;;;6185804;23;20189;-89
2023/10/25 03:46:04;;;;;;;21.33;14.13;;;;;;;;;;6185723;23;20173;-89
2023/10/25 03:48:33;;;;;;;17.00;14.00;;;;;;;;;;6185591;23;20181;-89
2023/10/25 03:51:04;;;;;;;17.47;15.10;;;;;;;;;;6185017;23;20176;-90
2023/10/25 03:53:34;;;;;;;16.97;12.73;;;;;;;;;;6186823;23;20181;-89
2023/10/25 03:56:02;;;;;;;22.60;17.40;;;;;;;;;;6185963;23;20168;-89
2023/10/25 03:58:33;;;;;;;24.10;16.73;;;;;;;;;;6185636;23;20187;-89
2023/10/25 04:01:02;;;;;;;24.27;16.17;;;;;;;;;;6185394;23;20236;-89
2023/10/25 04:03:30;;;;;;;16.77;13.47;;;;;;;;;;6185696;23;20181;-89
2023/10/25 04:05:59;;;;;;;17.13;10.87;;;;;;;;;;6186006;23;20202;-89
2023/10/25 04:08:28;;;;;;;19.53;14.00;;;;;;;;;;6184700;23;20190;-89
2023/10/25 04:10:59;;;;;;;16.20;10.27;;;;;;;;;;6184903;23;20185;-89
2023/10/25 04:13:28;;;;;;;22.83;17.47;;;;;;;;;;6185414;23;20190;-89
2023/10/25 04:15:59;;;;;;;20.67;13.03;;;;;;;;;;6185366;23;20176;-89
2023/10/25 04:18:29;;;;;;;22.07;10.27;;;;;;;;;;6184585;23;20206;-89
2023/10/25 04:20:58;;;;;;;22.07;15.43;;;;;;;;;;6184886;23;20251;-89
2023/10/25 04:23:27;;;;;;;15.33;10.17;;;;;;;;;;6185550;23;20227;-89
2023/10/25 04:26:04;;;;;;;21.97;15.17;;;;;;;;;;6185470;23;20211;-89
2023/10/25 04:28:32;;;;;;;18.43;12.27;;;;;;;;;;6184531;23;20206;-89
2023/10/25 04:31:02;;;;;;;19.40;12.20;;;;;;;;;;6185261;23;20180;-89
2023/10/25 04:33:31;;;;;;;21.53;13.77;;;;;;;;;;6184997;23;20168;-89
2023/10/25 04:35:59;;;;;;;13.87;9.53;;;;;;;;;;6185364;23;20175;-89
2023/10/25 04:38:28;;;;;;;22.93;14.40;;;;;;;;;;6184952;23;20179;-90
2023/10/25 04:40:57;;;;;;;17.33;14.03;;;;;;;;;;6185237;23;20195;-89
2023/10/25 04:43:26;;;;;;;15.77;11.30;;;;;;;;;;6185095;23;20321;-89
2023/10/25 04:45:58;;;;;;;20.40;15.83;;;;;;;;;;6184882;23;20192;-89
2023/10/25 04:48:28;;;;;;;14.17;10.00;;;;;;;;;;6184456;23;20494;-89
2023/10/25 04:50:57;;;;;;;17.37;13.80;;;;;;;;;;6185047;23;20179;-89
2023/10/25 04:53:25;;;;;;;14.77;9.90;;;;;;;;;;6185014;23;20205;-89
2023/10/25 04:55:54;;;;;;;17.80;13.67;;;;;;;;;;6185334;23;20268;-89
2023/10/25 04:58:24;;;;;;;26.23;16.07;;;;;;;;;;6184651;23;20178;-89
2023/10/25 05:00:53;;;;;;;12.77;8.57;;;;;;;;;;6185022;23;20174;-89
2023/10/25 05:03:22;;;;;;;21.97;16.23;;;;;;;;;;6184987;23;20175;-89
2023/10/25 05:05:54;;;;;;;12.90;11.37;;;;;;;;;;6184219;23;20189;-89
2023/10/25 05:08:23;;;;;;;19.70;15.40;;;;;;;;;;6185119;23;20180;-89
2023/10/25 05:10:53;;;;;;;24.50;16.43;;;;;;;;;;6184653;23;20199;-89
2023/10/25 05:13:22;;;;;;;10.77;9.13;;;;;;;;;;6185278;23;20212;-89
2023/10/25 05:15:51;;;;;;;12.80;8.47;;;;;;;;;;6184394;23;20173;-89
2023/10/25 05:18:20;;;;;;;24.90;13.63;;;;;;;;;;6185040;23;20210;-89
2023/10/25 05:20:49;;;;;;;24.17;16.80;;;;;;;;;;6185092;23;20214;-89
2023/10/25 05:23:19;;;;;;;22.80;15.73;;;;;;;;;;6185142;23;20180;-89
2023/10/25 05:25:48;;;;;;;11.43;7.33;;;;;;;;;;6184531;23;20251;-89
2023/10/25 05:28:16;;;;;;;10.03;6.90;;;;;;;;;;6184974;23;20180;-90
2023/10/25 05:30:46;;;;;;;4.80;3.43;;;;;;;;;;6184844;23;20184;-91
2023/10/25 05:33:15;;;;;;;1.17;1.17;;;;;;;;;;6184635;23;20220;-89
2023/10/25 05:35:44;;;;;;;1.00;1.00;;;;;;;;;;6183407;23;20172;-90
2023/10/25 05:38:13;;;;;;;5.17;3.90;;;;;;;;;;6184261;23;20174;-89
2023/10/25 05:40:43;;;;;;;16.97;9.77;;;;;;;;;;6184588;23;20204;-91
2023/10/25 05:43:15;;;;;;;12.93;8.53;;;;;;;;;;6184781;23;20196;-90
2023/10/25 05:45:44;;;;;;;17.17;12.60;;;;;;;;;;6183701;23;20293;-91
2023/10/25 05:48:15;;;;;;;8.07;7.23;;;;;;;;;;6184206;23;20200;-91
2023/10/25 05:50:44;;;;;;;21.43;13.57;;;;;;;;;;6184075;23;20181;-90
2023/10/25 05:53:14;;;;;;;15.70;12.33;;;;;;;;;;6184880;23;20176;-90
2023/10/25 05:55:44;;;;;;;14.53;10.67;;;;;;;;;;6183744;23;20224;-89
2023/10/25 05:58:13;;;;;;;18.27;12.43;;;;;;;;;;6184138;23;20176;-90
2023/10/25 06:00:48;;;;;;;14.30;11.67;;;;;;;;;;6184109;23;20236;-91
2023/10/25 06:03:20;;;;;;;17.70;12.93;;;;;;;;;;6184523;23;20181;-90
2023/10/25 06:05:52;;;;;;;14.43;11.43;;;;;;;;;;6184974;23;20220;-91
2023/10/25 06:08:21;;;;;;;7.50;6.33;;;;;;;;;;6185339;23;20200;-90
2023/10/25 06:10:52;;;;;;;15.33;11.40;;;;;;;;;;6183908;23;20181;-90
2023/10/25 06:13:21;;;;;;;16.23;8.50;;;;;;;;;;6184355;23;20174;-89
2023/10/25 06:15:49;;;;;;;15.40;11.07;;;;;;;;;;6183391;23;20184;-90
2023/10/25 06:18:21;;;;;;;15.23;13.63;;;;;;;;;;6184017;23;20394;-90
2023/10/25 06:20:50;;;;;;;16.03;12.10;;;;;;;;;;6184234;23;20176;-89
2023/10/25 06:23:19;;;;;;;18.03;12.57;;;;;;;;;;6184347;23;20243;-90
2023/10/25 06:25:47;;;;;;;17.27;11.60;;;;;;;;;;6184405;23;20196;-90
2023/10/25 06:28:17;;;;;;;6.60;5.97;;;;;;;;;;6185152;23;20173;-90
2023/10/25 06:30:46;;;;;;;13.23;10.50;;;;;;;;;;6183935;23;20176;-91
2023/10/25 06:33:15;;;;;;;12.70;7.00;;;;;;;;;;6183932;23;20191;-91
2023/10/25 06:35:45;;;;;;;11.33;7.27;;;;;;;;;;6183882;23;20179;-91
2023/10/25 06:38:14;;;;;;;3.87;3.57;;;;;;;;;;6184112;23;20169;-90
2023/10/25 06:40:42;;;;;;;15.83;8.50;;;;;;;;;;6183935;23;20172;-90
2023/10/25 06:43:11;;;;;;;8.10;6.73;;;;;;;;;;6184376;23;20176;-90
2023/10/25 06:45:42;;;;;;;11.07;5.90;;;;;;;;;;6184018;23;20199;-90
2023/10/25 06:48:14;;;;;;;11.83;8.33;;;;;;;;;;6184397;23;20199;-89
2023/10/25 06:50:45;;;;;;;9.97;7.77;;;;;;;;;;6185434;23;20262;-89
2023/10/25 06:53:14;;;;;;;7.63;4.00;;;;;;;;;;6185504;23;20201;-89
2023/10/25 06:55:44;;;;;;;5.33;3.27;;;;;;;;;;6185580;23;20233;-89
2023/10/25 06:58:13;;;;;;;8.97;6.77;;;;;;;;;;6185712;23;20172;-89
2023/10/25 07:00:44;;;;;;;10.67;7.23;;;;;;;;;;6185574;23;20394;-90
2023/10/25 07:03:13;;;;;;;2.97;2.77;;;;;;;;;;6184738;23;20181;-88
2023/10/25 07:05:43;;;;;;;10.03;8.60;;;;;;;;;;6184634;23;20251;-89
2023/10/25 07:08:11;;;;;;;6.23;4.03;;;;;;;;;;6185592;23;20171;-90
2023/10/25 07:10:41;;;;;;;0.60;0.60;;;;;;;;;;6185071;23;20257;-88
2023/10/25 07:13:09;;;;;;;0.90;0.90;;;;;;;;;;6184643;23;20318;-89
2023/10/25 07:15:38;;;;;;;0.60;0.60;;;;;;;;;;6184790;23;20266;-89
2023/10/25 07:18:08;;;;;;;1.90;1.80;;;;;;;;;;6180404;23;20203;-85
2023/10/25 07:20:42;;;;;;;0.73;0.73;;;;;;;;;;6176409;23;20213;-88
2023/10/25 07:23:12;;;;;;;2.00;2.00;;;;;;;;;;6182571;23;20268;-88
2023/10/25 07:25:42;;;;;;;0.50;0.50;;;;;;;;;;6182910;23;20217;-90
2023/10/25 07:28:15;;;;;;;0.80;0.80;;;;;;;;;;6189724;23;20242;-89
2023/10/25 07:30:57;;;;;;;3.50;3.03;;;;;;;;;;6201308;23;20182;-88
2023/10/25 07:33:31;;;;;;;0.97;0.97;;;;;;;;;;6196279;23;20167;-89
2023/10/25 07:36:03;;;;;;;19.07;2.53;;;;;;;;;;6192943;23;20167;-93
2023/10/25 07:39:16;;;;;;;6.73;3.83;;;;;;;;;;6192644;23;20199;-87
2023/10/25 07:41:46;;;;;;;2.00;1.90;;;;;;;;;;6187563;23;20209;-91
2023/10/25 07:44:37;;;;;;;4.13;3.20;;;;;;;;;;6199155;23;20175;-88
2023/10/25 07:47:20;;;;;;;0.50;0.50;;;;;;;;;;6192971;23;20191;-89
2023/10/25 07:49:58;;;;;;;1.13;1.13;;;;;;;;;;6181602;23;20288;-88
2023/10/25 07:52:32;;;;;;;2.43;2.23;;;;;;;;;;6186826;23;20214;-90
2023/10/25 07:55:04;;;;;;;0.97;0.97;;;;;;;;;;6191437;23;20182;-89
2023/10/25 07:57:59;;;;;;;3.20;1.47;;;;;;;;;;6192210;23;20174;-91
2023/10/25 08:00:50;;;;;;;0.70;0.70;;;;;;;;;;6184168;23;20187;-91
2023/10/25 08:03:28;;;;;;;0.50;0.50;;;;;;;;;;6182041;23;20553;-92
2023/10/25 08:05:59;;;;;;;0.50;0.50;;;;;;;;;;6179194;23;20225;-90
2023/10/25 08:08:28;;;;;;;0.67;0.67;;;;;;;;;;6182483;23;20179;-90
2023/10/25 08:11:01;;;;;;;0.50;0.50;;;;;;;;;;6178392;23;20207;-91
2023/10/25 08:13:31;;;;;;;0.63;0.63;;;;;;;;;;6182755;23;20229;-90
2023/10/25 08:16:02;;;;;;;0.60;0.60;;;;;;;;;;6184552;23;20231;-89
2023/10/25 08:18:32;;;;;;;1.03;1.03;;;;;;;;;;6181750;23;20211;-88
2023/10/25 08:21:04;;;;;;;3.03;0.93;;;;;;;;;;6185324;23;20203;-90
2023/10/25 08:23:34;;;;;;;0.90;0.90;;;;;;;;;;6180221;23;20201;-90
2023/10/25 08:26:04;;;;;;;0.77;0.77;;;;;;;;;;6184739;23;20182;-91
2023/10/25 08:28:40;;;;;;;1.40;1.40;;;;;;;;;;6186428;23;20183;-88
2023/10/25 08:31:17;;;;;;;1.47;1.47;;;;;;;;;;6189438;23;20230;-88
2023/10/25 08:33:46;;;;;;;0.80;0.80;;;;;;;;;;6183871;23;20178;-88
2023/10/25 08:36:17;;;;;;;2.63;1.83;;;;;;;;;;6179802;23;20195;-91
2023/10/25 08:38:48;;;;;;;1.77;1.67;;;;;;;;;;6183810;23;20175;-91
2023/10/25 08:41:20;;;;;;;1.00;1.00;;;;;;;;;;6184263;23;20175;-91
2023/10/25 08:43:49;;;;;;;0.90;0.90;;;;;;;;;;6186054;23;20241;-91
2023/10/25 08:46:19;;;;;;;0.97;0.97;;;;;;;;;;6181489;23;20178;-90
2023/10/25 08:48:50;;;;;;;0.77;0.77;;;;;;;;;;6181306;23;20185;-88
2023/10/25 08:51:26;;;;;;;0.60;0.60;;;;;;;;;;6181404;23;20250;-92
2023/10/25 08:53:55;;;;;;;4.10;1.83;;;;;;;;;;6181803;23;20201;-91
2023/10/25 08:56:25;;;;;;;10.20;3.13;;;;;;;;;;6183857;23;20194;-92
2023/10/25 08:58:58;;;;;;;1.20;1.10;;;;;;;;;;6182322;23;20256;-88
2023/10/25 09:01:27;;;;;;;1.33;1.33;;;;;;;;;;6183242;23;20175;-89
2023/10/25 09:03:56;;;;;;;1.30;1.17;;;;;;;;;;6180577;23;20513;-91
2023/10/25 09:06:27;;;;;;;1.10;1.10;;;;;;;;;;6182781;23;20207;-90
2023/10/25 09:09:02;;;;;;;1.93;1.83;;;;;;;;;;6181814;23;20175;-89
2023/10/25 09:11:43;;;;;;;0.90;0.90;;;;;;;;;;6183516;23;20174;-90
2023/10/25 09:14:13;;;;;;;2.00;1.80;;;;;;;;;;6183588;23;20189;-88
2023/10/25 09:16:43;;;;;;;3.70;1.90;;;;;;;;;;6183741;23;20175;-89
2023/10/25 09:19:12;;;;;;;3.30;1.43;;;;;;;;;;6188496;23;20210;-91
2023/10/25 09:21:45;;;;;;;1.10;1.10;;;;;;;;;;6187497;23;20206;-91
2023/10/25 09:24:14;;;;;;;0.50;0.50;;;;;;;;;;6183428;23;20175;-91
2023/10/25 09:27:15;;;;;;;2.73;2.03;;;;;;;;;;6186178;23;20253;-89
2023/10/25 09:29:46;;;;;;;0.60;0.60;;;;;;;;;;6175462;23;20225;-90
2023/10/25 09:32:19;;;;;;;1.50;0.90;;;;;;;;;;6183563;23;20167;-91
2023/10/25 09:34:47;;;;;;;0.60;0.60;;;;;;;;;;6186976;23;20199;-90
2023/10/25 09:37:20;;;;;;;0.60;0.60;;;;;;;;;;6187476;23;20163;-91
2023/10/25 09:39:49;;;;;;;2.37;2.27;;;;;;;;;;6184630;23;20263;-90
2023/10/25 09:42:25;;;;;;;0.93;0.93;;;;;;;;;;6184742;23;20175;-89
2023/10/25 09:44:59;;;;;;;1.93;1.83;;;;;;;;;;6185062;23;20179;-91
2023/10/25 09:47:31;;;;;;;1.03;1.00;;;;;;;;;;6182422;23;20281;-90
2023/10/25 09:50:04;;;;;;;7.67;3.43;;;;;;;;;;6183329;23;20258;-89
2023/10/25 09:52:36;;;;;;;4.13;3.07;;;;;;;;;;6182850;23;20224;-90
2023/10/25 09:55:07;;;;;;;3.50;1.67;;;;;;;;;;6183281;23;20182;-88
2023/10/25 09:57:37;;;;;;;6.33;3.77;;;;;;;;;;6182388;23;20237;-89
2023/10/25 10:00:08;;;;;;;6.90;4.50;;;;;;;;;;6183220;23;20233;-91
2023/10/25 10:02:41;;;;;;;3.90;3.57;;;;;;;;;;6182681;23;20258;-90
2023/10/25 10:05:20;;;;;;;4.20;3.53;;;;;;;;;;6182854;23;20182;-90
2023/10/25 10:07:56;;;;;;;3.43;3.17;;;;;;;;;;6185383;23;20195;-89
2023/10/25 10:10:29;;;;;;;4.20;3.13;;;;;;;;;;6182323;23;20175;-88
2023/10/25 10:12:57;;;;;;;10.07;4.57;;;;;;;;;;6181679;23;20179;-91
2023/10/25 10:15:49;;;;;;;2.07;1.70;;;;;;;;;;6184496;23;20171;-91
2023/10/25 10:18:23;;;;;;;2.13;1.97;;;;;;;;;;6189384;23;20294;-93
2023/10/25 10:21:00;;;;;;;2.27;2.00;;;;;;;;;;6184195;23;20267;-90
2023/10/25 10:23:38;;;;;;;1.30;1.17;;;;;;;;;;6178860;23;20182;-90
2023/10/25 10:26:07;;;;;;;5.17;1.70;;;;;;;;;;6175726;23;20171;-89
2023/10/25 10:28:43;;;;;;;3.60;2.23;;;;;;;;;;6173793;23;20199;-87
2023/10/25 10:31:12;;;;;;;0.50;0.50;;;;;;;;;;6175539;23;20171;-89
2023/10/25 10:33:45;;;;;;;1.77;1.77;;;;;;;;;;6177744;23;20245;-89
2023/10/25 10:36:23;;;;;;;0.60;0.60;;;;;;;;;;6181081;23;20183;-89
2023/10/25 10:39:10;;;;;;;2.00;1.90;;;;;;;;;;6180501;23;20259;-87
2023/10/25 10:41:40;;;;;;;0.50;0.50;;;;;;;;;;6172518;23;20171;-87
2023/10/25 10:44:09;;;;;;;3.73;1.80;;;;;;;;;;6176428;23;20179;-88
2023/10/25 10:46:39;;;;;;;2.73;2.53;;;;;;;;;;6176479;23;20290;-85
2023/10/25 10:49:12;;;;;;;1.10;1.10;;;;;;;;;;6177715;23;20202;-89
2023/10/25 10:51:40;;;;;;;1.30;0.80;;;;;;;;;;6175150;23;20177;-88
2023/10/25 10:54:12;;;;;;;1.37;1.30;;;;;;;;;;6182258;23;20247;-89
2023/10/25 10:56:42;;;;;;;0.50;0.50;;;;;;;;;;6183631;23;20262;-89
2023/10/25 10:59:16;;;;;;;1.30;1.30;;;;;;;;;;6183939;23;20167;-89
2023/10/25 11:01:45;;;;;;;2.40;2.30;;;;;;;;;;6183445;23;20197;-88
2023/10/25 11:04:13;;;;;;;0.77;0.77;;;;;;;;;;6183150;23;20185;-88
2023/10/25 11:06:42;;;;;;;0.50;0.50;;;;;;;;;;6183097;23;20251;-89
2023/10/25 11:09:11;;;;;;;0.63;0.63;;;;;;;;;;6183637;23;20312;-88
2023/10/25 11:11:39;;;;;;;1.67;1.47;;;;;;;;;;6183276;23;20447;-90
2023/10/25 11:14:09;;;;;;;2.30;0.97;;;;;;;;;;6183418;23;20207;-89
2023/10/25 11:16:38;;;;;;;1.20;1.10;;;;;;;;;;6182096;23;20175;-89
2023/10/25 11:19:08;;;;;;;1.33;1.33;;;;;;;;;;6184431;23;20273;-90
2023/10/25 11:21:37;;;;;;;0.47;0.47;;;;;;;;;;6185768;23;20415;-89
2023/10/25 11:24:07;;;;;;;3.40;3.20;;;;;;;;;;6185644;23;20229;-89
2023/10/25 11:26:40;;;;;;;2.97;1.33;;;;;;;;;;6185575;23;20167;-91
2023/10/25 11:29:10;;;;;;;2.03;1.93;;;;;;;;;;6185542;23;20200;-89
2023/10/25 11:31:43;;;;;;;0.80;0.80;;;;;;;;;;6185654;23;20256;-89
2023/10/25 11:34:12;;;;;;;4.17;1.03;;;;;;;;;;6185048;23;20172;-88
2023/10/25 11:36:41;;;;;;;3.67;3.37;;;;;;;;;;6185130;23;20181;-90
2023/10/25 11:39:10;;;;;;;1.67;1.57;;;;;;;;;;6186517;23;20191;-89
2023/10/25 11:41:39;;;;;;;1.60;1.50;;;;;;;;;;6185166;23;20175;-88
2023/10/25 11:44:07;;;;;;;2.37;2.23;;;;;;;;;;6186005;23;20204;-89
2023/10/25 11:46:37;;;;;;;1.03;1.03;;;;;;;;;;6185199;23;20175;-88
2023/10/25 11:49:06;;;;;;;2.57;1.23;;;;;;;;;;6185227;23;20243;-88
2023/10/25 11:51:37;;;;;;;6.00;3.50;;;;;;;;;;6185174;23;20167;-88
2023/10/25 11:54:06;;;;;;;3.30;1.97;;;;;;;;;;6185346;23;20194;-89
2023/10/25 11:56:47;;;;;;;1.67;1.57;;;;;;;;;;6186237;23;20178;-89
2023/10/25 11:59:17;;;;;;;2.37;1.57;;;;;;;;;;6185803;23;20230;-89
2023/10/25 12:01:47;;;;;;;2.20;2.00;;;;;;;;;;6185817;23;20190;-88
2023/10/25 12:04:15;;;;;;;1.40;1.33;;;;;;;;;;6185351;23;20175;-89
2023/10/25 12:06:44;;;;;;;0.63;0.63;;;;;;;;;;6186200;23;20179;-87
2023/10/25 12:09:13;;;;;;;0.90;0.90;;;;;;;;;;6185542;23;20274;-88
2023/10/25 12:11:42;;;;;;;2.57;1.80;;;;;;;;;;6184835;23;20183;-88
2023/10/25 12:14:10;;;;;;;2.83;2.63;;;;;;;;;;6185555;23;20175;-86
2023/10/25 12:17:00;;;;;;;2.67;2.43;;;;;;;;;;6185371;23;20218;-88
2023/10/25 12:19:29;;;;;;;6.30;1.93;;;;;;;;;;6185477;23;20227;-88
2023/10/25 12:21:57;;;;;;;2.03;1.83;;;;;;;;;;6184640;23;20258;-89
2023/10/25 12:24:26;;;;;;;2.93;1.83;;;;;;;;;;6184888;23;20167;-88
2023/10/25 12:26:55;;;;;;;2.27;1.97;;;;;;;;;;6185045;23;20253;-87
2023/10/25 12:29:24;;;;;;;1.97;1.87;;;;;;;;;;6184716;23;20195;-87
2023/10/25 12:31:53;;;;;;;2.00;1.80;;;;;;;;;;6184756;23;20249;-86
2023/10/25 12:34:23;;;;;;;2.07;1.87;;;;;;;;;;6185060;23;20175;-87
2023/10/25 12:36:52;;;;;;;1.00;1.00;;;;;;;;;;6184534;23;20258;-87
2023/10/25 12:39:22;;;;;;;1.10;1.10;;;;;;;;;;6185461;23;20171;-83
2023/10/25 12:41:50;;;;;;;2.70;1.70;;;;;;;;;;6183999;23;20179;-88
2023/10/25 12:44:19;;;;;;;1.53;1.43;;;;;;;;;;6184903;23;20171;-88
2023/10/25 12:46:48;;;;;;;3.57;1.93;;;;;;;;;;6184602;23;20171;-88
2023/10/25 12:49:18;;;;;;;2.13;1.97;;;;;;;;;;6185035;23;20187;-88
2023/10/25 12:51:48;;;;;;;1.60;1.50;;;;;;;;;;6183757;23;20175;-88
2023/10/25 12:54:17;;;;;;;3.40;2.47;;;;;;;;;;6184786;23;20203;-88
2023/10/25 12:56:45;;;;;;;2.43;2.23;;;;;;;;;;6185367;23;20179;-88
2023/10/25 12:59:14;;;;;;;5.57;3.40;;;;;;;;;;6184724;23;20167;-87
2023/10/25 13:01:42;;;;;;;2.93;2.23;;;;;;;;;;6184483;23;20167;-87
2023/10/25 13:04:14;;;;;;;2.20;2.10;;;;;;;;;;6185613;23;20197;-89
2023/10/25 13:06:43;;;;;;;4.07;3.13;;;;;;;;;;6186298;23;20187;-88
2023/10/25 13:09:13;;;;;;;4.73;3.57;;;;;;;;;;6185395;23;20187;-87
2023/10/25 13:11:42;;;;;;;2.17;1.83;;;;;;;;;;6185467;23;20178;-87
2023/10/25 13:14:13;;;;;;;4.83;2.60;;;;;;;;;;6185882;23;20171;-89
2023/10/25 13:16:42;;;;;;;3.43;2.30;;;;;;;;;;6185536;23;20238;-88
2023/10/25 13:19:10;;;;;;;12.77;2.50;;;;;;;;;;6184490;23;20257;-89
2023/10/25 13:21:41;;;;;;;4.53;2.33;;;;;;;;;;6185043;23;20171;-89
2023/10/25 13:24:10;;;;;;;1.80;1.70;;;;;;;;;;6185900;23;20280;-89
2023/10/25 13:26:41;;;;;;;1.93;1.83;;;;;;;;;;6186985;23;20221;-88
2023/10/25 13:29:10;;;;;;;2.93;2.60;;;;;;;;;;6185752;23;20246;-88
2023/10/25 13:31:40;;;;;;;1.80;1.70;;;;;;;;;;6185492;23;20178;-90
2023/10/25 13:34:09;;;;;;;1.17;1.17;;;;;;;;;;6186898;23;20179;-90
2023/10/25 13:36:37;;;;;;;6.60;3.40;;;;;;;;;;6186595;23;20171;-91
2023/10/25 13:39:06;;;;;;;2.93;2.63;;;;;;;;;;6186462;23;20417;-91
2023/10/25 13:41:35;;;;;;;3.47;2.53;;;;;;;;;;6185619;23;20172;-90
2023/10/25 13:44:05;;;;;;;2.00;1.73;;;;;;;;;;6186586;23;20167;-90
2023/10/25 13:46:35;;;;;;;4.13;2.87;;;;;;;;;;6186152;23;20175;-91
2023/10/25 13:49:03;;;;;;;2.50;2.03;;;;;;;;;;6185460;23;20407;-91
2023/10/25 13:51:32;;;;;;;1.17;1.17;;;;;;;;;;6185909;23;20194;-90
2023/10/25 13:54:01;;;;;;;2.20;1.93;;;;;;;;;;6186162;23;20171;-90
2023/10/25 13:56:29;;;;;;;9.93;1.77;;;;;;;;;;6185668;23;20167;-89
2023/10/25 13:58:58;;;;;;;2.40;2.20;;;;;;;;;;6185427;23;20171;-90
2023/10/25 14:01:28;;;;;;;1.33;1.23;;;;;;;;;;6184678;23;20213;-90
2023/10/25 14:03:58;;;;;;;2.17;1.97;;;;;;;;;;6185225;23;20197;-90
2023/10/25 14:06:27;;;;;;;3.60;2.53;;;;;;;;;;6184459;23;20226;-89
2023/10/25 14:08:56;;;;;;;2.77;2.53;;;;;;;;;;6184448;23;20206;-89
2023/10/25 14:11:24;;;;;;;4.43;2.63;;;;;;;;;;6184674;23;20178;-91
2023/10/25 14:13:54;;;;;;;2.53;2.33;;;;;;;;;;6184355;23;20172;-91
2023/10/25 14:16:22;;;;;;;2.77;2.57;;;;;;;;;;6185060;23;20171;-91
2023/10/25 14:18:52;;;;;;;5.57;4.10;;;;;;;;;;6183962;23;20214;-91
2023/10/25 14:21:23;;;;;;;3.47;2.00;;;;;;;;;;6184638;23;20183;-90
2023/10/25 14:23:52;;;;;;;0.93;0.93;;;;;;;;;;6185154;23;20175;-91
2023/10/25 14:26:21;;;;;;;2.70;1.73;;;;;;;;;;6184955;23;20214;-89
2023/10/25 14:28:50;;;;;;;1.97;1.60;;;;;;;;;;6184121;23;20175;-91
2023/10/25 14:31:18;;;;;;;1.50;1.40;;;;;;;;;;6184252;23;20257;-91
2023/10/25 14:33:47;;;;;;;1.50;1.40;;;;;;;;;;6184229;23;20186;-89
2023/10/25 14:36:17;;;;;;;1.93;1.83;;;;;;;;;;6183657;23;20373;-89
2023/10/25 14:38:47;;;;;;;3.17;2.77;;;;;;;;;;6183046;23;20171;-89
2023/10/25 14:41:15;;;;;;;4.60;3.77;;;;;;;;;;6183543;23;20255;-89
2023/10/25 14:43:44;;;;;;;1.87;1.70;;;;;;;;;;6183429;23;20170;-89
2023/10/25 14:46:13;;;;;;;2.83;2.47;;;;;;;;;;6184137;23;20241;-89
2023/10/25 14:48:42;;;;;;;2.07;1.70;;;;;;;;;;6183885;23;20193;-89
2023/10/25 14:51:14;;;;;;;1.33;1.23;;;;;;;;;;6183354;23;20251;-88
2023/10/25 14:53:44;;;;;;;7.00;2.00;;;;;;;;;;6183510;23;20179;-89
2023/10/25 14:56:13;;;;;;;5.67;2.97;;;;;;;;;;6183670;23;20167;-89
2023/10/25 14:58:41;;;;;;;1.17;1.10;;;;;;;;;;6183095;23;20203;-89